sensor_id;sensor_type;location;lat;lon;timestamp;P1;P2;P0
47741;PMS5003;33504;52.066;6.096;2022-12-10T00:00:07;107;100;
47741;PMS5003;33504;52.066;6.096;2022-12-10T00:02:34;115;96;
47741;PMS5003;33504;52.066;6.096;2022-12-10T00:05:02;104;96;
47741;PMS5003;33504;52.066;6.096;2022-12-10T00:07:29;110;92;
47741;PMS5003;33504;52.066;6.096;2022-12-10T00:09:56;101;91;
47741;PMS5003;33504;52.066;6.096;2022-12-10T00:12:24;102;96;
47741;PMS5003;33504;52.066;6.096;2022-12-10T00:14:51;99;95;
47741;PMS5003;33504;52.066;6.096;2022-12-10T00:17:18;110;94;
47741;PMS5003;33504;52.066;6.096;2022-12-10T00:19:44;98;94;
47741;PMS5003;33504;52.066;6.096;2022-12-10T00:22:11;106;98;
47741;PMS5003;33504;52.066;6.096;2022-12-10T00:24:39;97;90;
47741;PMS5003;33504;52.066;6.096;2022-12-10T00:27:07;97;90;
47741;PMS5003;33504;52.066;6.096;2022-12-10T00:29:34;99;94;
47741;PMS5003;33504;52.066;6.096;2022-12-10T00:32:01;104;89;
47741;PMS5003;33504;52.066;6.096;2022-12-10T00:34:28;104;95;
47741;PMS5003;33504;52.066;6.096;2022-12-10T00:37:01;94;88;
47741;PMS5003;33504;52.066;6.096;2022-12-10T00:39:29;96;86;
47741;PMS5003;33504;52.066;6.096;2022-12-10T00:41:56;95;88;
47741;PMS5003;33504;52.066;6.096;2022-12-10T00:44:23;83;77;
47741;PMS5003;33504;52.066;6.096;2022-12-10T00:46:50;100;90;
47741;PMS5003;33504;52.066;6.096;2022-12-10T00:49:17;97;84;
47741;PMS5003;33504;52.066;6.096;2022-12-10T00:51:44;98;85;
47741;PMS5003;33504;52.066;6.096;2022-12-10T00:54:11;99;87;
47741;PMS5003;33504;52.066;6.096;2022-12-10T00:56:39;107;94;
47741;PMS5003;33504;52.066;6.096;2022-12-10T00:59:12;104;90;
47741;PMS5003;33504;52.066;6.096;2022-12-10T01:01:40;107;90;
47741;PMS5003;33504;52.066;6.096;2022-12-10T01:04:09;110;97;
47741;PMS5003;33504;52.066;6.096;2022-12-10T01:06:40;122;101;
47741;PMS5003;33504;52.066;6.096;2022-12-10T01:09:10;117;105;
47741;PMS5003;33504;52.066;6.096;2022-12-10T01:11:39;110;96;
47741;PMS5003;33504;52.066;6.096;2022-12-10T01:14:10;106;96;
47741;PMS5003;33504;52.066;6.096;2022-12-10T01:16:39;105;88;
47741;PMS5003;33504;52.066;6.096;2022-12-10T01:19:06;105;96;
47741;PMS5003;33504;52.066;6.096;2022-12-10T01:21:33;97;88;
47741;PMS5003;33504;52.066;6.096;2022-12-10T01:24:00;90;82;
47741;PMS5003;33504;52.066;6.096;2022-12-10T01:26:28;93;79;
47741;PMS5003;33504;52.066;6.096;2022-12-10T01:28:57;94;83;
47741;PMS5003;33504;52.066;6.096;2022-12-10T01:31:26;88;77;
47741;PMS5003;33504;52.066;6.096;2022-12-10T01:33:56;88;79;
47741;PMS5003;33504;52.066;6.096;2022-12-10T01:36:25;79;71;
47741;PMS5003;33504;52.066;6.096;2022-12-10T01:38:53;83;75;
47741;PMS5003;33504;52.066;6.096;2022-12-10T01:41:21;80;75;
47741;PMS5003;33504;52.066;6.096;2022-12-10T01:43:52;85;75;
47741;PMS5003;33504;52.066;6.096;2022-12-10T01:46:22;72;61;
47741;PMS5003;33504;52.066;6.096;2022-12-10T01:48:50;90;78;
47741;PMS5003;33504;52.066;6.096;2022-12-10T01:51:18;77;67;
47741;PMS5003;33504;52.066;6.096;2022-12-10T01:53:46;89;73;
47741;PMS5003;33504;52.066;6.096;2022-12-10T01:56:20;81;71;
47741;PMS5003;33504;52.066;6.096;2022-12-10T01:58:48;83;68;
47741;PMS5003;33504;52.066;6.096;2022-12-10T02:01:21;70;65;
47741;PMS5003;33504;52.066;6.096;2022-12-10T02:03:58;77;68;
47741;PMS5003;33504;52.066;6.096;2022-12-10T02:06:38;70;67;
47741;PMS5003;33504;52.066;6.096;2022-12-10T02:09:20;77;65;
47741;PMS5003;33504;52.066;6.096;2022-12-10T02:11:59;78;72;
47741;PMS5003;33504;52.066;6.096;2022-12-10T02:14:37;84;70;
47741;PMS5003;33504;52.066;6.096;2022-12-10T02:17:11;86;68;
47741;PMS5003;33504;52.066;6.096;2022-12-10T02:19:49;83;70;
47741;PMS5003;33504;52.066;6.096;2022-12-10T02:22:21;78;69;
47741;PMS5003;33504;52.066;6.096;2022-12-10T02:24:51;89;80;
47741;PMS5003;33504;52.066;6.096;2022-12-10T02:27:22;91;76;
47741;PMS5003;33504;52.066;6.096;2022-12-10T02:29:53;82;73;
47741;PMS5003;33504;52.066;6.096;2022-12-10T02:32:22;79;70;
47741;PMS5003;33504;52.066;6.096;2022-12-10T02:34:52;84;73;
47741;PMS5003;33504;52.066;6.096;2022-12-10T02:37:23;90;79;
47741;PMS5003;33504;52.066;6.096;2022-12-10T02:39:53;81;73;
47741;PMS5003;33504;52.066;6.096;2022-12-10T02:42:24;83;70;
47741;PMS5003;33504;52.066;6.096;2022-12-10T02:44:54;83;72;
47741;PMS5003;33504;52.066;6.096;2022-12-10T02:47:23;93;83;
47741;PMS5003;33504;52.066;6.096;2022-12-10T02:49:53;83;73;
47741;PMS5003;33504;52.066;6.096;2022-12-10T02:52:23;91;77;
47741;PMS5003;33504;52.066;6.096;2022-12-10T02:54:51;93;80;
47741;PMS5003;33504;52.066;6.096;2022-12-10T02:57:23;88;76;
47741;PMS5003;33504;52.066;6.096;2022-12-10T02:59:59;83;73;
47741;PMS5003;33504;52.066;6.096;2022-12-10T03:02:33;82;70;
47741;PMS5003;33504;52.066;6.096;2022-12-10T03:05:12;78;75;
47741;PMS5003;33504;52.066;6.096;2022-12-10T03:07:46;81;77;
47741;PMS5003;33504;52.066;6.096;2022-12-10T03:10:20;85;77;
47741;PMS5003;33504;52.066;6.096;2022-12-10T03:12:54;86;76;
47741;PMS5003;33504;52.066;6.096;2022-12-10T03:15:25;90;77;
47741;PMS5003;33504;52.066;6.096;2022-12-10T03:17:56;92;77;
47741;PMS5003;33504;52.066;6.096;2022-12-10T03:20:25;77;70;
47741;PMS5003;33504;52.066;6.096;2022-12-10T03:22:53;86;69;
47741;PMS5003;33504;52.066;6.096;2022-12-10T03:25:22;88;76;
47741;PMS5003;33504;52.066;6.096;2022-12-10T03:27:55;80;72;
47741;PMS5003;33504;52.066;6.096;2022-12-10T03:30:24;74;64;
47741;PMS5003;33504;52.066;6.096;2022-12-10T03:32:51;76;69;
47741;PMS5003;33504;52.066;6.096;2022-12-10T03:35:19;84;73;
47741;PMS5003;33504;52.066;6.096;2022-12-10T03:37:49;77;66;
47741;PMS5003;33504;52.066;6.096;2022-12-10T03:40:18;95;79;
47741;PMS5003;33504;52.066;6.096;2022-12-10T03:42:48;85;79;
47741;PMS5003;33504;52.066;6.096;2022-12-10T03:45:16;87;79;
47741;PMS5003;33504;52.066;6.096;2022-12-10T03:47:43;84;74;
47741;PMS5003;33504;52.066;6.096;2022-12-10T03:50:10;86;72;
47741;PMS5003;33504;52.066;6.096;2022-12-10T03:52:37;86;73;
47741;PMS5003;33504;52.066;6.096;2022-12-10T03:55:04;79;68;
47741;PMS5003;33504;52.066;6.096;2022-12-10T03:57:32;86;74;
47741;PMS5003;33504;52.066;6.096;2022-12-10T03:59:59;90;76;
47741;PMS5003;33504;52.066;6.096;2022-12-10T04:02:28;75;72;
47741;PMS5003;33504;52.066;6.096;2022-12-10T04:04:55;76;68;
47741;PMS5003;33504;52.066;6.096;2022-12-10T04:07:21;85;74;
47741;PMS5003;33504;52.066;6.096;2022-12-10T04:09:49;87;79;
47741;PMS5003;33504;52.066;6.096;2022-12-10T04:12:16;90;80;
47741;PMS5003;33504;52.066;6.096;2022-12-10T04:14:43;91;83;
47741;PMS5003;33504;52.066;6.096;2022-12-10T04:17:10;84;77;
47741;PMS5003;33504;52.066;6.096;2022-12-10T04:19:38;82;72;
47741;PMS5003;33504;52.066;6.096;2022-12-10T04:22:06;96;87;
47741;PMS5003;33504;52.066;6.096;2022-12-10T04:24:34;93;77;
47741;PMS5003;33504;52.066;6.096;2022-12-10T04:27:04;83;76;
47741;PMS5003;33504;52.066;6.096;2022-12-10T04:29:34;89;75;
47741;PMS5003;33504;52.066;6.096;2022-12-10T04:32:01;84;71;
47741;PMS5003;33504;52.066;6.096;2022-12-10T04:34:28;88;73;
47741;PMS5003;33504;52.066;6.096;2022-12-10T04:36:56;80;76;
47741;PMS5003;33504;52.066;6.096;2022-12-10T04:39:24;91;83;
47741;PMS5003;33504;52.066;6.096;2022-12-10T04:41:51;88;76;
47741;PMS5003;33504;52.066;6.096;2022-12-10T04:44:19;83;76;
47741;PMS5003;33504;52.066;6.096;2022-12-10T04:46:47;82;73;
47741;PMS5003;33504;52.066;6.096;2022-12-10T04:49:14;85;73;
47741;PMS5003;33504;52.066;6.096;2022-12-10T04:51:42;89;80;
47741;PMS5003;33504;52.066;6.096;2022-12-10T04:54:10;90;80;
47741;PMS5003;33504;52.066;6.096;2022-12-10T04:56:38;93;83;
47741;PMS5003;33504;52.066;6.096;2022-12-10T04:59:06;91;79;
47741;PMS5003;33504;52.066;6.096;2022-12-10T05:01:35;93;85;
47741;PMS5003;33504;52.066;6.096;2022-12-10T05:04:03;89;81;
47741;PMS5003;33504;52.066;6.096;2022-12-10T05:06:34;93;81;
47741;PMS5003;33504;52.066;6.096;2022-12-10T05:09:02;97;81;
47741;PMS5003;33504;52.066;6.096;2022-12-10T05:11:29;99;81;
47741;PMS5003;33504;52.066;6.096;2022-12-10T05:13:58;87;81;
47741;PMS5003;33504;52.066;6.096;2022-12-10T05:16:27;93;81;
47741;PMS5003;33504;52.066;6.096;2022-12-10T05:18:55;97;84;
47741;PMS5003;33504;52.066;6.096;2022-12-10T05:21:23;85;75;
47741;PMS5003;33504;52.066;6.096;2022-12-10T05:23:51;118;96;
47741;PMS5003;33504;52.066;6.096;2022-12-10T05:26:19;96;87;
47741;PMS5003;33504;52.066;6.096;2022-12-10T05:28:48;107;93;
47741;PMS5003;33504;52.066;6.096;2022-12-10T05:31:18;102;91;
47741;PMS5003;33504;52.066;6.096;2022-12-10T05:33:46;102;88;
47741;PMS5003;33504;52.066;6.096;2022-12-10T05:36:15;104;90;
47741;PMS5003;33504;52.066;6.096;2022-12-10T05:38:44;109;90;
47741;PMS5003;33504;52.066;6.096;2022-12-10T05:41:13;104;92;
47741;PMS5003;33504;52.066;6.096;2022-12-10T05:43:42;106;89;
47741;PMS5003;33504;52.066;6.096;2022-12-10T05:46:11;118;102;
47741;PMS5003;33504;52.066;6.096;2022-12-10T05:48:41;114;91;
47741;PMS5003;33504;52.066;6.096;2022-12-10T05:51:10;116;102;
47741;PMS5003;33504;52.066;6.096;2022-12-10T05:53:38;117;94;
47741;PMS5003;33504;52.066;6.096;2022-12-10T05:56:07;114;97;
47741;PMS5003;33504;52.066;6.096;2022-12-10T05:58:41;112;86;
47741;PMS5003;33504;52.066;6.096;2022-12-10T06:01:11;108;95;
47741;PMS5003;33504;52.066;6.096;2022-12-10T06:03:39;112;100;
47741;PMS5003;33504;52.066;6.096;2022-12-10T06:06:07;113;96;
47741;PMS5003;33504;52.066;6.096;2022-12-10T06:08:35;100;82;
47741;PMS5003;33504;52.066;6.096;2022-12-10T06:11:03;116;95;
47741;PMS5003;33504;52.066;6.096;2022-12-10T06:13:31;111;98;
47741;PMS5003;33504;52.066;6.096;2022-12-10T06:16:05;113;97;
47741;PMS5003;33504;52.066;6.096;2022-12-10T06:18:33;112;88;
47741;PMS5003;33504;52.066;6.096;2022-12-10T06:21:02;114;96;
47741;PMS5003;33504;52.066;6.096;2022-12-10T06:23:30;111;100;
47741;PMS5003;33504;52.066;6.096;2022-12-10T06:25:57;112;99;
47741;PMS5003;33504;52.066;6.096;2022-12-10T06:28:24;100;88;
47741;PMS5003;33504;52.066;6.096;2022-12-10T06:30:51;103;94;
47741;PMS5003;33504;52.066;6.096;2022-12-10T06:33:18;116;92;
47741;PMS5003;33504;52.066;6.096;2022-12-10T06:35:45;104;94;
47741;PMS5003;33504;52.066;6.096;2022-12-10T06:38:12;112;91;
47741;PMS5003;33504;52.066;6.096;2022-12-10T06:40:40;97;88;
47741;PMS5003;33504;52.066;6.096;2022-12-10T06:43:10;105;96;
47741;PMS5003;33504;52.066;6.096;2022-12-10T06:45:38;110;90;
47741;PMS5003;33504;52.066;6.096;2022-12-10T06:48:05;95;82;
47741;PMS5003;33504;52.066;6.096;2022-12-10T06:50:33;104;94;
47741;PMS5003;33504;52.066;6.096;2022-12-10T06:53:01;101;91;
47741;PMS5003;33504;52.066;6.096;2022-12-10T06:55:29;118;96;
47741;PMS5003;33504;52.066;6.096;2022-12-10T06:57:55;116;98;
47741;PMS5003;33504;52.066;6.096;2022-12-10T07:00:23;109;89;
47741;PMS5003;33504;52.066;6.096;2022-12-10T07:02:50;115;96;
47741;PMS5003;33504;52.066;6.096;2022-12-10T07:05:16;110;98;
47741;PMS5003;33504;52.066;6.096;2022-12-10T07:07:43;114;93;
47741;PMS5003;33504;52.066;6.096;2022-12-10T07:10:11;113;96;
47741;PMS5003;33504;52.066;6.096;2022-12-10T07:12:39;101;90;
47741;PMS5003;33504;52.066;6.096;2022-12-10T07:15:06;103;93;
47741;PMS5003;33504;52.066;6.096;2022-12-10T07:17:34;105;89;
47741;PMS5003;33504;52.066;6.096;2022-12-10T07:20:02;107;97;
47741;PMS5003;33504;52.066;6.096;2022-12-10T07:22:30;112;94;
47741;PMS5003;33504;52.066;6.096;2022-12-10T07:24:58;101;88;
47741;PMS5003;33504;52.066;6.096;2022-12-10T07:27:25;114;98;
47741;PMS5003;33504;52.066;6.096;2022-12-10T07:29:52;111;95;
47741;PMS5003;33504;52.066;6.096;2022-12-10T07:32:26;101;88;
47741;PMS5003;33504;52.066;6.096;2022-12-10T07:34:52;121;91;
47741;PMS5003;33504;52.066;6.096;2022-12-10T07:37:19;103;92;
47741;PMS5003;33504;52.066;6.096;2022-12-10T07:39:47;102;87;
47741;PMS5003;33504;52.066;6.096;2022-12-10T07:42:14;93;87;
47741;PMS5003;33504;52.066;6.096;2022-12-10T07:44:41;107;93;
47741;PMS5003;33504;52.066;6.096;2022-12-10T07:47:08;103;89;
47741;PMS5003;33504;52.066;6.096;2022-12-10T07:49:35;94;84;
47741;PMS5003;33504;52.066;6.096;2022-12-10T07:52:02;102;90;
47741;PMS5003;33504;52.066;6.096;2022-12-10T07:54:29;94;86;
47741;PMS5003;33504;52.066;6.096;2022-12-10T07:56:56;108;91;
47741;PMS5003;33504;52.066;6.096;2022-12-10T07:59:24;97;89;
47741;PMS5003;33504;52.066;6.096;2022-12-10T08:01:51;96;87;
47741;PMS5003;33504;52.066;6.096;2022-12-10T08:04:18;102;87;
47741;PMS5003;33504;52.066;6.096;2022-12-10T08:06:45;104;93;
47741;PMS5003;33504;52.066;6.096;2022-12-10T08:09:12;99;83;
47741;PMS5003;33504;52.066;6.096;2022-12-10T08:11:40;112;93;
47741;PMS5003;33504;52.066;6.096;2022-12-10T08:14:07;99;89;
47741;PMS5003;33504;52.066;6.096;2022-12-10T08:16:34;87;76;
47741;PMS5003;33504;52.066;6.096;2022-12-10T08:19:01;95;85;
47741;PMS5003;33504;52.066;6.096;2022-12-10T08:21:30;98;87;
47741;PMS5003;33504;52.066;6.096;2022-12-10T08:23:58;92;85;
47741;PMS5003;33504;52.066;6.096;2022-12-10T08:26:26;97;88;
47741;PMS5003;33504;52.066;6.096;2022-12-10T08:28:56;102;84;
47741;PMS5003;33504;52.066;6.096;2022-12-10T08:31:24;99;86;
47741;PMS5003;33504;52.066;6.096;2022-12-10T08:33:53;102;87;
47741;PMS5003;33504;52.066;6.096;2022-12-10T08:36:20;92;81;
47741;PMS5003;33504;52.066;6.096;2022-12-10T08:38:48;97;85;
47741;PMS5003;33504;52.066;6.096;2022-12-10T08:41:16;95;81;
47741;PMS5003;33504;52.066;6.096;2022-12-10T08:43:45;107;90;
47741;PMS5003;33504;52.066;6.096;2022-12-10T08:46:14;100;85;
47741;PMS5003;33504;52.066;6.096;2022-12-10T08:48:42;102;88;
47741;PMS5003;33504;52.066;6.096;2022-12-10T08:51:11;107;91;
47741;PMS5003;33504;52.066;6.096;2022-12-10T08:53:42;100;87;
47741;PMS5003;33504;52.066;6.096;2022-12-10T08:56:09;96;86;
47741;PMS5003;33504;52.066;6.096;2022-12-10T08:58:37;97;85;
47741;PMS5003;33504;52.066;6.096;2022-12-10T09:01:06;93;85;
47741;PMS5003;33504;52.066;6.096;2022-12-10T09:03:35;94;79;
47741;PMS5003;33504;52.066;6.096;2022-12-10T09:06:03;101;86;
47741;PMS5003;33504;52.066;6.096;2022-12-10T09:08:32;99;87;
47741;PMS5003;33504;52.066;6.096;2022-12-10T09:11:04;95;81;
47741;PMS5003;33504;52.066;6.096;2022-12-10T09:13:31;112;87;
47741;PMS5003;33504;52.066;6.096;2022-12-10T09:15:58;104;84;
47741;PMS5003;33504;52.066;6.096;2022-12-10T09:18:25;100;88;
47741;PMS5003;33504;52.066;6.096;2022-12-10T09:20:53;95;77;
47741;PMS5003;33504;52.066;6.096;2022-12-10T09:23:20;106;84;
47741;PMS5003;33504;52.066;6.096;2022-12-10T09:25:47;95;81;
47741;PMS5003;33504;52.066;6.096;2022-12-10T09:28:15;87;71;
47741;PMS5003;33504;52.066;6.096;2022-12-10T09:30:42;95;81;
47741;PMS5003;33504;52.066;6.096;2022-12-10T09:33:09;97;84;
47741;PMS5003;33504;52.066;6.096;2022-12-10T09:35:39;91;80;
47741;PMS5003;33504;52.066;6.096;2022-12-10T09:38:07;91;79;
47741;PMS5003;33504;52.066;6.096;2022-12-10T09:40:36;92;78;
47741;PMS5003;33504;52.066;6.096;2022-12-10T09:43:11;94;78;
47741;PMS5003;33504;52.066;6.096;2022-12-10T09:45:44;82;74;
47741;PMS5003;33504;52.066;6.096;2022-12-10T09:48:22;111;93;
47741;PMS5003;33504;52.066;6.096;2022-12-10T09:50:55;99;85;
47741;PMS5003;33504;52.066;6.096;2022-12-10T09:53:31;96;84;
47741;PMS5003;33504;52.066;6.096;2022-12-10T09:56:00;96;75;
47741;PMS5003;33504;52.066;6.096;2022-12-10T09:58:27;86;79;
47741;PMS5003;33504;52.066;6.096;2022-12-10T10:00:55;99;84;
47741;PMS5003;33504;52.066;6.096;2022-12-10T10:03:25;88;79;
47741;PMS5003;33504;52.066;6.096;2022-12-10T10:05:53;95;85;
47741;PMS5003;33504;52.066;6.096;2022-12-10T10:08:26;93;78;
47741;PMS5003;33504;52.066;6.096;2022-12-10T10:10:55;88;82;
47741;PMS5003;33504;52.066;6.096;2022-12-10T10:13:27;90;81;
47741;PMS5003;33504;52.066;6.096;2022-12-10T10:16:01;92;79;
47741;PMS5003;33504;52.066;6.096;2022-12-10T10:18:48;87;79;
47741;PMS5003;33504;52.066;6.096;2022-12-10T10:21:22;99;83;
47741;PMS5003;33504;52.066;6.096;2022-12-10T10:23:51;84;74;
47741;PMS5003;33504;52.066;6.096;2022-12-10T10:26:18;85;72;
47741;PMS5003;33504;52.066;6.096;2022-12-10T10:28:46;94;81;
47741;PMS5003;33504;52.066;6.096;2022-12-10T10:31:18;69;61;
47741;PMS5003;33504;52.066;6.096;2022-12-10T10:33:50;85;75;
47741;PMS5003;33504;52.066;6.096;2022-12-10T10:36:23;85;72;
47741;PMS5003;33504;52.066;6.096;2022-12-10T10:38:53;75;67;
47741;PMS5003;33504;52.066;6.096;2022-12-10T10:41:23;77;67;
47741;PMS5003;33504;52.066;6.096;2022-12-10T10:43:53;84;73;
47741;PMS5003;33504;52.066;6.096;2022-12-10T10:46:26;78;72;
47741;PMS5003;33504;52.066;6.096;2022-12-10T10:48:55;72;63;
47741;PMS5003;33504;52.066;6.096;2022-12-10T10:51:41;85;72;
47741;PMS5003;33504;52.066;6.096;2022-12-10T10:54:09;74;66;
47741;PMS5003;33504;52.066;6.096;2022-12-10T10:56:38;84;67;
47741;PMS5003;33504;52.066;6.096;2022-12-10T10:59:19;75;66;
47741;PMS5003;33504;52.066;6.096;2022-12-10T11:01:57;71;65;
47741;PMS5003;33504;52.066;6.096;2022-12-10T11:04:29;78;70;
47741;PMS5003;33504;52.066;6.096;2022-12-10T11:07:04;81;70;
47741;PMS5003;33504;52.066;6.096;2022-12-10T11:09:39;79;63;
47741;PMS5003;33504;52.066;6.096;2022-12-10T11:12:19;75;68;
47741;PMS5003;33504;52.066;6.096;2022-12-10T11:14:55;83;65;
47741;PMS5003;33504;52.066;6.096;2022-12-10T11:17:23;86;69;
47741;PMS5003;33504;52.066;6.096;2022-12-10T11:19:54;90;69;
47741;PMS5003;33504;52.066;6.096;2022-12-10T11:22:24;92;77;
47741;PMS5003;33504;52.066;6.096;2022-12-10T11:24:53;93;77;
47741;PMS5003;33504;52.066;6.096;2022-12-10T11:27:25;86;70;
47741;PMS5003;33504;52.066;6.096;2022-12-10T11:30:04;85;70;
47741;PMS5003;33504;52.066;6.096;2022-12-10T11:32:39;86;68;
47741;PMS5003;33504;52.066;6.096;2022-12-10T11:35:16;77;65;
47741;PMS5003;33504;52.066;6.096;2022-12-10T11:37:53;83;70;
47741;PMS5003;33504;52.066;6.096;2022-12-10T11:40:30;98;75;
47741;PMS5003;33504;52.066;6.096;2022-12-10T11:43:10;92;76;
47741;PMS5003;33504;52.066;6.096;2022-12-10T11:45:51;92;74;
47741;PMS5003;33504;52.066;6.096;2022-12-10T11:48:30;85;71;
47741;PMS5003;33504;52.066;6.096;2022-12-10T11:51:08;87;74;
47741;PMS5003;33504;52.066;6.096;2022-12-10T11:53:53;84;72;
47741;PMS5003;33504;52.066;6.096;2022-12-10T11:56:28;96;82;
47741;PMS5003;33504;52.066;6.096;2022-12-10T11:59:05;88;77;
47741;PMS5003;33504;52.066;6.096;2022-12-10T12:01:45;88;73;
47741;PMS5003;33504;52.066;6.096;2022-12-10T12:04:24;104;85;
47741;PMS5003;33504;52.066;6.096;2022-12-10T12:07:18;92;72;
47741;PMS5003;33504;52.066;6.096;2022-12-10T12:10:00;86;77;
47741;PMS5003;33504;52.066;6.096;2022-12-10T12:13:38;83;70;
47741;PMS5003;33504;52.066;6.096;2022-12-10T12:16:15;102;79;
47741;PMS5003;33504;52.066;6.096;2022-12-10T12:18:50;91;75;
47741;PMS5003;33504;52.066;6.096;2022-12-10T12:21:25;85;73;
47741;PMS5003;33504;52.066;6.096;2022-12-10T12:23:54;73;64;
47741;PMS5003;33504;52.066;6.096;2022-12-10T12:26:25;81;74;
47741;PMS5003;33504;52.066;6.096;2022-12-10T12:28:56;79;66;
47741;PMS5003;33504;52.066;6.096;2022-12-10T12:31:35;85;66;
47741;PMS5003;33504;52.066;6.096;2022-12-10T12:34:10;72;62;
47741;PMS5003;33504;52.066;6.096;2022-12-10T12:36:44;83;62;
47741;PMS5003;33504;52.066;6.096;2022-12-10T12:39:15;70;63;
47741;PMS5003;33504;52.066;6.096;2022-12-10T12:41:50;77;67;
47741;PMS5003;33504;52.066;6.096;2022-12-10T12:44:26;76;67;
47741;PMS5003;33504;52.066;6.096;2022-12-10T12:47:01;74;65;
47741;PMS5003;33504;52.066;6.096;2022-12-10T12:49:37;95;74;
47741;PMS5003;33504;52.066;6.096;2022-12-10T12:52:13;77;71;
47741;PMS5003;33504;52.066;6.096;2022-12-10T12:54:49;87;76;
47741;PMS5003;33504;52.066;6.096;2022-12-10T12:57:20;93;81;
47741;PMS5003;33504;52.066;6.096;2022-12-10T12:59:57;88;70;
47741;PMS5003;33504;52.066;6.096;2022-12-10T13:03:07;80;67;
47741;PMS5003;33504;52.066;6.096;2022-12-10T13:05:45;76;64;
47741;PMS5003;33504;52.066;6.096;2022-12-10T13:08:29;84;73;
47741;PMS5003;33504;52.066;6.096;2022-12-10T13:10:57;87;71;
47741;PMS5003;33504;52.066;6.096;2022-12-10T13:13:30;95;79;
47741;PMS5003;33504;52.066;6.096;2022-12-10T13:16:34;82;63;
47741;PMS5003;33504;52.066;6.096;2022-12-10T13:19:34;83;67;
47741;PMS5003;33504;52.066;6.096;2022-12-10T13:22:04;78;65;
47741;PMS5003;33504;52.066;6.096;2022-12-10T13:25:12;72;66;
47741;PMS5003;33504;52.066;6.096;2022-12-10T13:27:53;66;60;
47741;PMS5003;33504;52.066;6.096;2022-12-10T13:30:27;76;61;
47741;PMS5003;33504;52.066;6.096;2022-12-10T13:33:05;87;66;
47741;PMS5003;33504;52.066;6.096;2022-12-10T13:35:43;71;58;
47741;PMS5003;33504;52.066;6.096;2022-12-10T13:38:17;67;61;
47741;PMS5003;33504;52.066;6.096;2022-12-10T13:40:56;84;69;
47741;PMS5003;33504;52.066;6.096;2022-12-10T13:43:28;77;63;
47741;PMS5003;33504;52.066;6.096;2022-12-10T13:46:50;68;58;
47741;PMS5003;33504;52.066;6.096;2022-12-10T13:49:20;72;62;
47741;PMS5003;33504;52.066;6.096;2022-12-10T13:51:53;62;52;
47741;PMS5003;33504;52.066;6.096;2022-12-10T13:54:27;68;61;
47741;PMS5003;33504;52.066;6.096;2022-12-10T13:57:08;80;68;
47741;PMS5003;33504;52.066;6.096;2022-12-10T13:59:49;64;55;
47741;PMS5003;33504;52.066;6.096;2022-12-10T14:02:30;69;58;
47741;PMS5003;33504;52.066;6.096;2022-12-10T14:05:43;63;55;
47741;PMS5003;33504;52.066;6.096;2022-12-10T14:08:21;73;57;
47741;PMS5003;33504;52.066;6.096;2022-12-10T14:10:54;62;49;
47741;PMS5003;33504;52.066;6.096;2022-12-10T14:13:25;69;63;
47741;PMS5003;33504;52.066;6.096;2022-12-10T14:15:58;74;61;
47741;PMS5003;33504;52.066;6.096;2022-12-10T14:18:28;74;62;
47741;PMS5003;33504;52.066;6.096;2022-12-10T14:20:56;54;49;
47741;PMS5003;33504;52.066;6.096;2022-12-10T14:23:30;58;50;
47741;PMS5003;33504;52.066;6.096;2022-12-10T14:25:58;63;57;
47741;PMS5003;33504;52.066;6.096;2022-12-10T14:28:29;61;55;
47741;PMS5003;33504;52.066;6.096;2022-12-10T14:30:56;62;56;
47741;PMS5003;33504;52.066;6.096;2022-12-10T14:33:24;57;52;
47741;PMS5003;33504;52.066;6.096;2022-12-10T14:35:51;62;53;
47741;PMS5003;33504;52.066;6.096;2022-12-10T14:38:20;67;56;
47741;PMS5003;33504;52.066;6.096;2022-12-10T14:40:49;68;61;
47741;PMS5003;33504;52.066;6.096;2022-12-10T14:43:17;63;49;
47741;PMS5003;33504;52.066;6.096;2022-12-10T14:45:48;66;57;
47741;PMS5003;33504;52.066;6.096;2022-12-10T14:48:18;66;57;
47741;PMS5003;33504;52.066;6.096;2022-12-10T14:50:46;76;66;
47741;PMS5003;33504;52.066;6.096;2022-12-10T14:53:14;77;63;
47741;PMS5003;33504;52.066;6.096;2022-12-10T14:55:43;74;60;
47741;PMS5003;33504;52.066;6.096;2022-12-10T14:58:13;83;63;
47741;PMS5003;33504;52.066;6.096;2022-12-10T15:00:44;81;66;
47741;PMS5003;33504;52.066;6.096;2022-12-10T15:03:17;72;61;
47741;PMS5003;33504;52.066;6.096;2022-12-10T15:05:53;67;56;
47741;PMS5003;33504;52.066;6.096;2022-12-10T15:08:23;71;56;
47741;PMS5003;33504;52.066;6.096;2022-12-10T15:10:54;75;62;
47741;PMS5003;33504;52.066;6.096;2022-12-10T15:13:24;70;64;
47741;PMS5003;33504;52.066;6.096;2022-12-10T15:15:59;73;63;
47741;PMS5003;33504;52.066;6.096;2022-12-10T15:18:27;72;57;
47741;PMS5003;33504;52.066;6.096;2022-12-10T15:21:03;66;58;
47741;PMS5003;33504;52.066;6.096;2022-12-10T15:23:35;69;58;
47741;PMS5003;33504;52.066;6.096;2022-12-10T15:26:04;73;62;
47741;PMS5003;33504;52.066;6.096;2022-12-10T15:28:39;58;53;
47741;PMS5003;33504;52.066;6.096;2022-12-10T15:31:11;64;55;
47741;PMS5003;33504;52.066;6.096;2022-12-10T15:33:44;68;55;
47741;PMS5003;33504;52.066;6.096;2022-12-10T15:36:16;63;54;
47741;PMS5003;33504;52.066;6.096;2022-12-10T15:38:47;63;51;
47741;PMS5003;33504;52.066;6.096;2022-12-10T15:41:22;84;64;
47741;PMS5003;33504;52.066;6.096;2022-12-10T15:44:00;63;55;
47741;PMS5003;33504;52.066;6.096;2022-12-10T15:46:29;66;56;
47741;PMS5003;33504;52.066;6.096;2022-12-10T15:48:56;59;50;
47741;PMS5003;33504;52.066;6.096;2022-12-10T15:51:23;67;54;
47741;PMS5003;33504;52.066;6.096;2022-12-10T15:53:50;59;49;
47741;PMS5003;33504;52.066;6.096;2022-12-10T15:56:17;60;53;
47741;PMS5003;33504;52.066;6.096;2022-12-10T15:58:44;66;55;
47741;PMS5003;33504;52.066;6.096;2022-12-10T16:01:11;69;57;
47741;PMS5003;33504;52.066;6.096;2022-12-10T16:03:40;61;45;
47741;PMS5003;33504;52.066;6.096;2022-12-10T16:06:06;68;60;
47741;PMS5003;33504;52.066;6.096;2022-12-10T16:08:33;66;60;
47741;PMS5003;33504;52.066;6.096;2022-12-10T16:11:01;61;55;
47741;PMS5003;33504;52.066;6.096;2022-12-10T16:13:33;65;55;
47741;PMS5003;33504;52.066;6.096;2022-12-10T16:16:03;52;50;
47741;PMS5003;33504;52.066;6.096;2022-12-10T16:18:32;48;45;
47741;PMS5003;33504;52.066;6.096;2022-12-10T16:21:00;56;52;
47741;PMS5003;33504;52.066;6.096;2022-12-10T16:23:27;57;47;
47741;PMS5003;33504;52.066;6.096;2022-12-10T16:25:55;60;51;
47741;PMS5003;33504;52.066;6.096;2022-12-10T16:28:22;58;53;
47741;PMS5003;33504;52.066;6.096;2022-12-10T16:30:51;61;51;
47741;PMS5003;33504;52.066;6.096;2022-12-10T16:33:20;79;68;
47741;PMS5003;33504;52.066;6.096;2022-12-10T16:35:49;65;56;
47741;PMS5003;33504;52.066;6.096;2022-12-10T16:38:18;55;50;